sensor_id;sensor_type;location;lat;lon;timestamp;pressure;altitude;pressure_sealevel;temperature;humidity
53011;BME280;42803;55.762;38.084;2023-04-02T00:00:13;98979.38;;;4.62;100.00
53011;BME280;42803;55.762;38.084;2023-04-02T00:03:04;98988.03;;;4.62;100.00
53011;BME280;42803;55.762;38.084;2023-04-02T00:05:43;98992.44;;;4.63;100.00
53011;BME280;42803;55.762;38.084;2023-04-02T00:08:28;98994.22;;;4.64;100.00
53011;BME280;42803;55.762;38.084;2023-04-02T00:11:07;98986.47;;;4.64;100.00
53011;BME280;42803;55.762;38.084;2023-04-02T00:13:39;98996.06;;;4.66;100.00
53011;BME280;42803;55.762;38.084;2023-04-02T00:16:12;99000.19;;;4.63;100.00
53011;BME280;42803;55.762;38.084;2023-04-02T00:18:45;99004.88;;;4.68;100.00
53011;BME280;42803;55.762;38.084;2023-04-02T00:21:22;99000.75;;;4.70;100.00
53011;BME280;42803;55.762;38.084;2023-04-02T00:23:54;99009.41;;;4.70;100.00
53011;BME280;42803;55.762;38.084;2023-04-02T00:26:29;98997.53;;;4.72;100.00
53011;BME280;42803;55.762;38.084;2023-04-02T00:28:58;99003.88;;;4.76;100.00
53011;BME280;42803;55.762;38.084;2023-04-02T00:31:28;99005.69;;;4.77;100.00
53011;BME280;42803;55.762;38.084;2023-04-02T00:33:59;98997.19;;;4.78;100.00
53011;BME280;42803;55.762;38.084;2023-04-02T00:36:32;99003.38;;;4.80;100.00
53011;BME280;42803;55.762;38.084;2023-04-02T00:39:03;99012.22;;;4.82;100.00
53011;BME280;42803;55.762;38.084;2023-04-02T00:41:36;99019.97;;;4.82;100.00
53011;BME280;42803;55.762;38.084;2023-04-02T00:44:05;99015.97;;;4.85;100.00
53011;BME280;42803;55.762;38.084;2023-04-02T00:46:43;99011.22;;;4.90;100.00
53011;BME280;42803;55.762;38.084;2023-04-02T00:49:37;99014.84;;;4.92;100.00
53011;BME280;42803;55.762;38.084;2023-04-02T00:52:12;99017.72;;;4.95;100.00
53011;BME280;42803;55.762;38.084;2023-04-02T00:54:46;99011.00;;;4.97;100.00
53011;BME280;42803;55.762;38.084;2023-04-02T00:57:19;99023.16;;;4.98;100.00
53011;BME280;42803;55.762;38.084;2023-04-02T00:59:54;99019.81;;;4.99;100.00
53011;BME280;42803;55.762;38.084;2023-04-02T01:02:27;99021.66;;;5.00;100.00
53011;BME280;42803;55.762;38.084;2023-04-02T01:05:00;99017.38;;;5.01;100.00
53011;BME280;42803;55.762;38.084;2023-04-02T01:07:50;99024.47;;;5.03;100.00
53011;BME280;42803;55.762;38.084;2023-04-02T01:10:34;99021.28;;;5.06;100.00
53011;BME280;42803;55.762;38.084;2023-04-02T01:13:10;99018.81;;;5.07;100.00
53011;BME280;42803;55.762;38.084;2023-04-02T01:15:46;99020.16;;;5.12;100.00
53011;BME280;42803;55.762;38.084;2023-04-02T01:18:28;99016.91;;;5.15;100.00
53011;BME280;42803;55.762;38.084;2023-04-02T01:21:10;99018.88;;;5.18;100.00
53011;BME280;42803;55.762;38.084;2023-04-02T01:23:52;99019.03;;;5.19;100.00
53011;BME280;42803;55.762;38.084;2023-04-02T01:26:34;99018.38;;;5.22;100.00
53011;BME280;42803;55.762;38.084;2023-04-02T01:29:08;99020.34;;;5.24;100.00
53011;BME280;42803;55.762;38.084;2023-04-02T01:31:40;99022.31;;;5.27;100.00
53011;BME280;42803;55.762;38.084;2023-04-02T01:34:12;99018.31;;;5.30;100.00
53011;BME280;42803;55.762;38.084;2023-04-02T01:36:55;99014.31;;;5.34;100.00
53011;BME280;42803;55.762;38.084;2023-04-02T01:39:38;99010.19;;;5.36;100.00
53011;BME280;42803;55.762;38.084;2023-04-02T01:42:13;99002.41;;;5.36;100.00
53011;BME280;42803;55.762;38.084;2023-04-02T01:44:49;99010.19;;;5.36;100.00
53011;BME280;42803;55.762;38.084;2023-04-02T01:47:21;99005.78;;;5.35;100.00
53011;BME280;42803;55.762;38.084;2023-04-02T01:50:00;99005.00;;;5.36;100.00
53011;BME280;42803;55.762;38.084;2023-04-02T01:52:36;99006.06;;;5.38;100.00
53011;BME280;42803;55.762;38.084;2023-04-02T01:55:08;99011.88;;;5.35;100.00
53011;BME280;42803;55.762;38.084;2023-04-02T01:57:41;99020.53;;;5.36;100.00
53011;BME280;42803;55.762;38.084;2023-04-02T02:00:14;99010.69;;;5.32;100.00
53011;BME280;42803;55.762;38.084;2023-04-02T02:02:50;99011.97;;;5.27;100.00
53011;BME280;42803;55.762;38.084;2023-04-02T02:05:21;99009.09;;;5.24;100.00
53011;BME280;42803;55.762;38.084;2023-04-02T02:07:55;99012.47;;;5.23;100.00
53011;BME280;42803;55.762;38.084;2023-04-02T02:10:27;99010.50;;;5.20;100.00
53011;BME280;42803;55.762;38.084;2023-04-02T02:12:57;99015.69;;;5.20;100.00
53011;BME280;42803;55.762;38.084;2023-04-02T02:15:31;99010.50;;;5.20;100.00
53011;BME280;42803;55.762;38.084;2023-04-02T02:18:03;99014.78;;;5.20;100.00
53011;BME280;42803;55.762;38.084;2023-04-02T02:20:33;99011.41;;;5.21;100.00
53011;BME280;42803;55.762;38.084;2023-04-02T02:23:03;99016.56;;;5.21;100.00
53011;BME280;42803;55.762;38.084;2023-04-02T02:25:34;99014.00;;;5.21;100.00
53011;BME280;42803;55.762;38.084;2023-04-02T02:28:05;99013.88;;;5.19;100.00
53011;BME280;42803;55.762;38.084;2023-04-02T02:30:40;99013.59;;;5.16;100.00
53011;BME280;42803;55.762;38.084;2023-04-02T02:33:16;99010.22;;;5.17;100.00
53011;BME280;42803;55.762;38.084;2023-04-02T02:35:53;99018.75;;;5.16;100.00
53011;BME280;42803;55.762;38.084;2023-04-02T02:38:38;99021.47;;;5.18;100.00
53011;BME280;42803;55.762;38.084;2023-04-02T02:41:19;99017.19;;;5.18;100.00
53011;BME280;42803;55.762;38.084;2023-04-02T02:43:58;99020.56;;;5.17;100.00
53011;BME280;42803;55.762;38.084;2023-04-02T02:46:31;99024.22;;;5.19;100.00
53011;BME280;42803;55.762;38.084;2023-04-02T02:49:06;99021.63;;;5.19;100.00
53011;BME280;42803;55.762;38.084;2023-04-02T02:51:41;99024.63;;;5.24;100.00
53011;BME280;42803;55.762;38.084;2023-04-02T02:54:17;99025.66;;;5.26;100.00
53011;BME280;42803;55.762;38.084;2023-04-02T02:56:51;99025.94;;;5.29;100.00
53011;BME280;42803;55.762;38.084;2023-04-02T02:59:23;99036.28;;;5.29;100.00
53011;BME280;42803;55.762;38.084;2023-04-02T03:01:57;99038.88;;;5.29;100.00
53011;BME280;42803;55.762;38.084;2023-04-02T03:04:28;99038.09;;;5.30;100.00
53011;BME280;42803;55.762;38.084;2023-04-02T03:07:06;99043.25;;;5.30;100.00
53011;BME280;42803;55.762;38.084;2023-04-02T03:09:43;99038.53;;;5.34;100.00
53011;BME280;42803;55.762;38.084;2023-04-02T03:12:32;99042.03;;;5.35;100.00
53011;BME280;42803;55.762;38.084;2023-04-02T03:15:14;99045.34;;;5.34;100.00
53011;BME280;42803;55.762;38.084;2023-04-02T03:17:50;99037.13;;;5.38;100.00
53011;BME280;42803;55.762;38.084;2023-04-02T03:20:25;99029.81;;;5.34;100.00
53011;BME280;42803;55.762;38.084;2023-04-02T03:23:00;99027.13;;;5.32;100.00
53011;BME280;42803;55.762;38.084;2023-04-02T03:25:35;99026.22;;;5.32;100.00
53011;BME280;42803;55.762;38.084;2023-04-02T03:28:13;99030.47;;;5.31;100.00
53011;BME280;42803;55.762;38.084;2023-04-02T03:30:47;99036.84;;;5.35;100.00
53011;BME280;42803;55.762;38.084;2023-04-02T03:33:24;99036.06;;;5.36;100.00
53011;BME280;42803;55.762;38.084;2023-04-02T03:35:58;99032.19;;;5.41;100.00
53011;BME280;42803;55.762;38.084;2023-04-02T03:38:40;99037.81;;;5.46;100.00
53011;BME280;42803;55.762;38.084;2023-04-02T03:41:17;99042.59;;;5.51;100.00
53011;BME280;42803;55.762;38.084;2023-04-02T03:43:52;99050.38;;;5.51;100.00
53011;BME280;42803;55.762;38.084;2023-04-02T03:46:30;99052.47;;;5.55;100.00
53011;BME280;42803;55.762;38.084;2023-04-02T03:49:06;99047.00;;;5.52;100.00
53011;BME280;42803;55.762;38.084;2023-04-02T03:51:40;99055.16;;;5.57;100.00
53011;BME280;42803;55.762;38.084;2023-04-02T03:54:15;99050.94;;;5.57;100.00
53011;BME280;42803;55.762;38.084;2023-04-02T03:56:45;99054.19;;;5.65;100.00
53011;BME280;42803;55.762;38.084;2023-04-02T03:59:28;99056.69;;;5.74;100.00
53011;BME280;42803;55.762;38.084;2023-04-02T04:02:11;99051.28;;;5.81;100.00
53011;BME280;42803;55.762;38.084;2023-04-02T04:04:45;99053.09;;;5.82;100.00
53011;BME280;42803;55.762;38.084;2023-04-02T04:07:21;99051.03;;;5.88;100.00
53011;BME280;42803;55.762;38.084;2023-04-02T04:09:56;99048.69;;;5.91;100.00
53011;BME280;42803;55.762;38.084;2023-04-02T04:12:31;99049.00;;;5.94;100.00
53011;BME280;42803;55.762;38.084;2023-04-02T04:15:07;99055.09;;;5.95;100.00
53011;BME280;42803;55.762;38.084;2023-04-02T04:17:46;99056.53;;;6.01;100.00
53011;BME280;42803;55.762;38.084;2023-04-02T04:20:24;99055.53;;;6.09;100.00
53011;BME280;42803;55.762;38.084;2023-04-02T04:23:07;99051.41;;;6.22;100.00
53011;BME280;42803;55.762;38.084;2023-04-02T04:25:38;99061.78;;;6.32;100.00
53011;BME280;42803;55.762;38.084;2023-04-02T04:28:25;99052.47;;;6.44;100.00
53011;BME280;42803;55.762;38.084;2023-04-02T04:31:14;99051.19;;;6.49;100.00
53011;BME280;42803;55.762;38.084;2023-04-02T04:33:53;99049.38;;;6.58;100.00
53011;BME280;42803;55.762;38.084;2023-04-02T04:36:40;99046.28;;;6.73;100.00
53011;BME280;42803;55.762;38.084;2023-04-02T04:39:30;99053.25;;;6.74;100.00
53011;BME280;42803;55.762;38.084;2023-04-02T04:42:04;99058.22;;;6.61;100.00
53011;BME280;42803;55.762;38.084;2023-04-02T04:44:41;99061.31;;;6.46;100.00
53011;BME280;42803;55.762;38.084;2023-04-02T04:47:17;99063.00;;;6.46;100.00
53011;BME280;42803;55.762;38.084;2023-04-02T04:49:52;99065.56;;;6.35;100.00
53011;BME280;42803;55.762;38.084;2023-04-02T04:52:26;99070.63;;;6.44;100.00
53011;BME280;42803;55.762;38.084;2023-04-02T04:54:58;99072.31;;;6.44;100.00
53011;BME280;42803;55.762;38.084;2023-04-02T04:57:31;99068.28;;;6.37;100.00
53011;BME280;42803;55.762;38.084;2023-04-02T05:00:13;99071.66;;;6.36;100.00
53011;BME280;42803;55.762;38.084;2023-04-02T05:02:49;99066.47;;;6.36;100.00
53011;BME280;42803;55.762;38.084;2023-04-02T05:05:25;99080.84;;;6.32;100.00
53011;BME280;42803;55.762;38.084;2023-04-02T05:08:19;99085.00;;;6.41;100.00
53011;BME280;42803;55.762;38.084;2023-04-02T05:10:55;99077.72;;;6.37;100.00
53011;BME280;42803;55.762;38.084;2023-04-02T05:13:30;99082.56;;;6.42;100.00
53011;BME280;42803;55.762;38.084;2023-04-02T05:16:09;99085.94;;;6.41;100.00
53011;BME280;42803;55.762;38.084;2023-04-02T05:18:47;99085.94;;;6.41;100.00
53011;BME280;42803;55.762;38.084;2023-04-02T05:21:23;99095.50;;;6.52;100.00
53011;BME280;42803;55.762;38.084;2023-04-02T05:24:00;99081.53;;;6.71;100.00
53011;BME280;42803;55.762;38.084;2023-04-02T05:26:38;99081.94;;;6.86;100.00
53011;BME280;42803;55.762;38.084;2023-04-02T05:29:14;99079.97;;;7.14;100.00
53011;BME280;42803;55.762;38.084;2023-04-02T05:31:49;99084.38;;;7.04;100.00
53011;BME280;42803;55.762;38.084;2023-04-02T05:34:25;99099.69;;;7.01;100.00
53011;BME280;42803;55.762;38.084;2023-04-02T05:36:57;99093.22;;;6.96;100.00
53011;BME280;42803;55.762;38.084;2023-04-02T05:39:28;99089.31;;;7.01;100.00
53011;BME280;42803;55.762;38.084;2023-04-02T05:42:03;99089.47;;;7.03;100.00
53011;BME280;42803;55.762;38.084;2023-04-02T05:44:55;99089.47;;;7.03;100.00
53011;BME280;42803;55.762;38.084;2023-04-02T05:47:31;99092.94;;;7.03;100.00
53011;BME280;42803;55.762;38.084;2023-04-02T05:50:22;99088.00;;;7.17;100.00
53011;BME280;42803;55.762;38.084;2023-04-02T05:52:58;99087.25;;;7.18;100.00
53011;BME280;42803;55.762;38.084;2023-04-02T05:55:47;99086.66;;;7.42;100.00
53011;BME280;42803;55.762;38.084;2023-04-02T05:58:26;99092.41;;;7.28;100.00
53011;BME280;42803;55.762;38.084;2023-04-02T06:01:20;99100.69;;;7.34;100.00
53011;BME280;42803;55.762;38.084;2023-04-02T06:03:57;99102.66;;;7.26;100.00
53011;BME280;42803;55.762;38.084;2023-04-02T06:06:46;99104.63;;;7.08;100.00
53011;BME280;42803;55.762;38.084;2023-04-02T06:09:22;99108.00;;;7.07;100.00
53011;BME280;42803;55.762;38.084;2023-04-02T06:12:00;99100.72;;;6.93;100.00
53011;BME280;42803;55.762;38.084;2023-04-02T06:14:41;99109.56;;;6.95;100.00
53011;BME280;42803;55.762;38.084;2023-04-02T06:17:44;99104.13;;;6.92;100.00
53011;BME280;42803;55.762;38.084;2023-04-02T06:20:17;99102.06;;;6.98;100.00
53011;BME280;42803;55.762;38.084;2023-04-02T06:22:48;99102.69;;;7.06;100.00
53011;BME280;42803;55.762;38.084;2023-04-02T06:25:23;99101.75;;;7.16;100.00
53011;BME280;42803;55.762;38.084;2023-04-02T06:27:57;99103.81;;;7.30;100.00
53011;BME280;42803;55.762;38.084;2023-04-02T06:30:32;99103.50;;;7.47;100.00
53011;BME280;42803;55.762;38.084;2023-04-02T06:33:11;99111.81;;;7.64;100.00
53011;BME280;42803;55.762;38.084;2023-04-02T06:35:44;99104.50;;;7.70;100.00
53011;BME280;42803;55.762;38.084;2023-04-02T06:38:28;99108.59;;;7.88;100.00
53011;BME280;42803;55.762;38.084;2023-04-02T06:41:01;99117.75;;;7.73;100.00
53011;BME280;42803;55.762;38.084;2023-04-02T06:43:43;99108.34;;;7.85;100.00
53011;BME280;42803;55.762;38.084;2023-04-02T06:46:25;99102.47;;;8.20;100.00
53011;BME280;42803;55.762;38.084;2023-04-02T06:49:16;99108.66;;;8.32;100.00
53011;BME280;42803;55.762;38.084;2023-04-02T06:51:56;99116.06;;;8.27;100.00
53011;BME280;42803;55.762;38.084;2023-04-02T06:54:30;99112.03;;;8.31;100.00
53011;BME280;42803;55.762;38.084;2023-04-02T06:57:06;99115.31;;;8.28;100.00
53011;BME280;42803;55.762;38.084;2023-04-02T06:59:42;99112.56;;;8.27;100.00
53011;BME280;42803;55.762;38.084;2023-04-02T07:02:28;99114.84;;;8.44;100.00
53011;BME280;42803;55.762;38.084;2023-04-02T07:05:04;99117.00;;;8.28;100.00
53011;BME280;42803;55.762;38.084;2023-04-02T07:07:39;99107.81;;;8.21;100.00
53011;BME280;42803;55.762;38.084;2023-04-02T07:10:11;99112.09;;;8.21;100.00
53011;BME280;42803;55.762;38.084;2023-04-02T07:12:40;99113.06;;;8.33;100.00
53011;BME280;42803;55.762;38.084;2023-04-02T07:15:14;99110.22;;;8.30;100.00
53011;BME280;42803;55.762;38.084;2023-04-02T07:17:44;99111.84;;;8.18;100.00
53011;BME280;42803;55.762;38.084;2023-04-02T07:20:24;99110.22;;;8.30;100.00
53011;BME280;42803;55.762;38.084;2023-04-02T07:22:57;99105.53;;;8.04;100.00
53011;BME280;42803;55.762;38.084;2023-04-02T07:25:26;99111.84;;;8.18;100.00
53011;BME280;42803;55.762;38.084;2023-04-02T07:27:55;99117.75;;;8.37;100.00
53011;BME280;42803;55.762;38.084;2023-04-02T07:30:26;99121.69;;;8.54;100.00
53011;BME280;42803;55.762;38.084;2023-04-02T07:32:55;99118.13;;;8.64;100.00
53011;BME280;42803;55.762;38.084;2023-04-02T07:35:24;99123.13;;;8.50;99.85
53011;BME280;42803;55.762;38.084;2023-04-02T07:37:54;99130.03;;;8.50;100.00
53011;BME280;42803;55.762;38.084;2023-04-02T07:40:26;99132.81;;;8.31;100.00
53011;BME280;42803;55.762;38.084;2023-04-02T07:42:55;99134.19;;;8.16;100.00
53011;BME280;42803;55.762;38.084;2023-04-02T07:45:26;99137.84;;;8.18;100.00
53011;BME280;42803;55.762;38.084;2023-04-02T07:47:56;99133.50;;;8.28;100.00
53011;BME280;42803;55.762;38.084;2023-04-02T07:50:28;99138.94;;;8.10;100.00
53011;BME280;42803;55.762;38.084;2023-04-02T07:52:57;99137.84;;;8.18;100.00
53011;BME280;42803;55.762;38.084;2023-04-02T07:55:27;99133.38;;;8.37;100.00
53011;BME280;42803;55.762;38.084;2023-04-02T07:57:57;99144.13;;;8.31;99.58
53011;BME280;42803;55.762;38.084;2023-04-02T08:00:29;99135.66;;;8.44;98.69
53011;BME280;42803;55.762;38.084;2023-04-02T08:02:58;99141.84;;;8.57;98.30
53011;BME280;42803;55.762;38.084;2023-04-02T08:05:28;99145.94;;;8.65;97.43
53011;BME280;42803;55.762;38.084;2023-04-02T08:07:57;99135.38;;;8.85;97.14
53011;BME280;42803;55.762;38.084;2023-04-02T08:10:26;99126.88;;;9.10;95.97
53011;BME280;42803;55.762;38.084;2023-04-02T08:12:56;99125.34;;;9.35;93.83
53011;BME280;42803;55.762;38.084;2023-04-02T08:15:25;99131.66;;;9.27;93.16
53011;BME280;42803;55.762;38.084;2023-04-02T08:17:56;99137.22;;;8.86;92.78
53011;BME280;42803;55.762;38.084;2023-04-02T08:20:26;99149.63;;;8.57;95.07
53011;BME280;42803;55.762;38.084;2023-04-02T08:22:58;99148.13;;;8.48;96.55
53011;BME280;42803;55.762;38.084;2023-04-02T08:25:28;99150.13;;;8.41;97.52
53011;BME280;42803;55.762;38.084;2023-04-02T08:27:57;99151.41;;;8.36;97.58
53011;BME280;42803;55.762;38.084;2023-04-02T08:30:28;99149.44;;;8.11;97.80
53011;BME280;42803;55.762;38.084;2023-04-02T08:32:59;99149.75;;;8.26;98.59
53011;BME280;42803;55.762;38.084;2023-04-02T08:35:29;99153.09;;;8.45;98.10
53011;BME280;42803;55.762;38.084;2023-04-02T08:37:58;99156.28;;;8.53;96.78
53011;BME280;42803;55.762;38.084;2023-04-02T08:40:31;99152.53;;;8.49;96.14
53011;BME280;42803;55.762;38.084;2023-04-02T08:43:13;99151.75;;;8.50;96.29
53011;BME280;42803;55.762;38.084;2023-04-02T08:45:54;99154.97;;;8.26;98.53
53011;BME280;42803;55.762;38.084;2023-04-02T08:48:35;99158.06;;;8.32;99.22
53011;BME280;42803;55.762;38.084;2023-04-02T08:51:18;99155.56;;;8.44;97.86
53011;BME280;42803;55.762;38.084;2023-04-02T08:53:50;99154.47;;;8.52;96.98
53011;BME280;42803;55.762;38.084;2023-04-02T08:56:26;99155.88;;;8.59;95.86
53011;BME280;42803;55.762;38.084;2023-04-02T08:58:59;99160.94;;;8.57;95.93
53011;BME280;42803;55.762;38.084;2023-04-02T09:01:35;99155.56;;;8.44;96.81
53011;BME280;42803;55.762;38.084;2023-04-02T09:04:15;99159.63;;;8.30;97.17
53011;BME280;42803;55.762;38.084;2023-04-02T09:06:46;99153.44;;;8.18;98.26
53011;BME280;42803;55.762;38.084;2023-04-02T09:09:17;99157.44;;;8.24;98.17
53011;BME280;42803;55.762;38.084;2023-04-02T09:11:52;99155.25;;;8.19;97.62
53011;BME280;42803;55.762;38.084;2023-04-02T09:14:33;99164.56;;;8.27;98.47
53011;BME280;42803;55.762;38.084;2023-04-02T09:17:04;99157.91;;;8.41;98.30
53011;BME280;42803;55.762;38.084;2023-04-02T09:19:52;99146.97;;;8.45;97.47
53011;BME280;42803;55.762;38.084;2023-04-02T09:22:25;99161.31;;;8.62;97.22
53011;BME280;42803;55.762;38.084;2023-04-02T09:24:56;99157.25;;;8.65;96.11
53011;BME280;42803;55.762;38.084;2023-04-02T09:27:28;99163.84;;;8.72;95.52
53011;BME280;42803;55.762;38.084;2023-04-02T09:30:00;99163.34;;;8.88;94.35
53011;BME280;42803;55.762;38.084;2023-04-02T09:32:47;99159.50;;;8.61;94.56
53011;BME280;42803;55.762;38.084;2023-04-02T09:35:20;99161.41;;;8.85;96.00
53011;BME280;42803;55.762;38.084;2023-04-02T09:38:15;99153.78;;;8.98;93.67
53011;BME280;42803;55.762;38.084;2023-04-02T09:40:48;99156.09;;;9.17;93.21
53011;BME280;42803;55.762;38.084;2023-04-02T09:43:20;99156.94;;;8.94;92.19
53011;BME280;42803;55.762;38.084;2023-04-02T09:45:59;99159.06;;;9.22;93.28
53011;BME280;42803;55.762;38.084;2023-04-02T09:48:30;99160.19;;;9.25;91.89
53011;BME280;42803;55.762;38.084;2023-04-02T09:51:18;99160.16;;;9.14;92.53
53011;BME280;42803;55.762;38.084;2023-04-02T09:53:49;99152.31;;;9.47;92.44
53011;BME280;42803;55.762;38.084;2023-04-02T09:56:20;99158.22;;;9.57;91.01
53011;BME280;42803;55.762;38.084;2023-04-02T09:59:03;99154.94;;;9.71;90.00
53011;BME280;42803;55.762;38.084;2023-04-02T10:01:35;99148.69;;;9.57;90.97
53011;BME280;42803;55.762;38.084;2023-04-02T10:04:35;99152.56;;;9.62;90.37
53011;BME280;42803;55.762;38.084;2023-04-02T10:07:27;99156.09;;;9.63;91.01
53011;BME280;42803;55.762;38.084;2023-04-02T10:09:56;99159.94;;;9.68;91.32
53011;BME280;42803;55.762;38.084;2023-04-02T10:12:29;99157.88;;;9.64;90.89
53011;BME280;42803;55.762;38.084;2023-04-02T10:15:02;99159.34;;;9.48;90.79
53011;BME280;42803;55.762;38.084;2023-04-02T10:17:35;99167.72;;;9.44;92.17
53011;BME280;42803;55.762;38.084;2023-04-02T10:20:16;99167.03;;;9.35;92.87
53011;BME280;42803;55.762;38.084;2023-04-02T10:22:48;99176.13;;;9.18;92.85
53011;BME280;42803;55.762;38.084;2023-04-02T10:25:20;99181.66;;;9.11;94.67
53011;BME280;42803;55.762;38.084;2023-04-02T10:27:59;99174.09;;;9.14;94.74
53011;BME280;42803;55.762;38.084;2023-04-02T10:30:39;99179.53;;;9.17;94.54
53011;BME280;42803;55.762;38.084;2023-04-02T10:33:17;99169.50;;;9.34;95.15
53011;BME280;42803;55.762;38.084;2023-04-02T10:35:55;99168.88;;;9.71;93.09
53011;BME280;42803;55.762;38.084;2023-04-02T10:38:43;99165.47;;;9.72;91.27
53011;BME280;42803;55.762;38.084;2023-04-02T10:41:27;99159.94;;;10.03;90.80
53011;BME280;42803;55.762;38.084;2023-04-02T10:44:21;99165.72;;;10.34;88.11
53011;BME280;42803;55.762;38.084;2023-04-02T10:47:05;99162.88;;;10.19;88.03
53011;BME280;42803;55.762;38.084;2023-04-02T10:49:41;99154.81;;;10.16;88.39
53011;BME280;42803;55.762;38.084;2023-04-02T10:52:14;99153.03;;;10.27;88.63
53011;BME280;42803;55.762;38.084;2023-04-02T10:54:49;99153.69;;;10.24;88.11
53011;BME280;42803;55.762;38.084;2023-04-02T10:57:31;99150.25;;;10.61;86.78
53011;BME280;42803;55.762;38.084;2023-04-02T11:00:13;99151.25;;;11.13;84.56
53011;BME280;42803;55.762;38.084;2023-04-02T11:02:47;99146.34;;;11.42;82.67
53011;BME280;42803;55.762;38.084;2023-04-02T11:05:21;99138.53;;;11.69;81.47
53011;BME280;42803;55.762;38.084;2023-04-02T11:08:03;99144.25;;;11.63;80.89
53011;BME280;42803;55.762;38.084;2023-04-02T11:10:37;99145.22;;;11.52;80.72
53011;BME280;42803;55.762;38.084;2023-04-02T11:13:14;99142.94;;;11.57;80.27
53011;BME280;42803;55.762;38.084;2023-04-02T11:15:47;99152.47;;;11.43;81.92
53011;BME280;42803;55.762;38.084;2023-04-02T11:18:23;99145.13;;;11.37;80.70
53011;BME280;42803;55.762;38.084;2023-04-02T11:20:58;99145.81;;;11.35;80.77
53011;BME280;42803;55.762;38.084;2023-04-02T11:23:28;99141.53;;;11.62;81.54
53011;BME280;42803;55.762;38.084;2023-04-02T11:26:31;99141.19;;;11.95;80.38
53011;BME280;42803;55.762;38.084;2023-04-02T11:29:14;99134.75;;;12.04;79.23
53011;BME280;42803;55.762;38.084;2023-04-02T11:31:45;99137.88;;;11.98;79.10
53011;BME280;42803;55.762;38.084;2023-04-02T11:37:36;99141.19;;;11.95;78.31
53011;BME280;42803;55.762;38.084;2023-04-02T11:40:45;99144.53;;;11.55;79.66
53011;BME280;42803;55.762;38.084;2023-04-02T11:43:50;99136.47;;;11.52;81.10
53011;BME280;42803;55.762;38.084;2023-04-02T11:46:38;99137.44;;;11.27;81.45
53011;BME280;42803;55.762;38.084;2023-04-02T11:49:39;99131.47;;;11.41;81.48
53011;BME280;42803;55.762;38.084;2023-04-02T11:52:23;99124.06;;;11.61;81.55
53011;BME280;42803;55.762;38.084;2023-04-02T11:55:14;99128.16;;;11.70;80.52
53011;BME280;42803;55.762;38.084;2023-04-02T11:58:10;99116.81;;;11.57;83.60
53011;BME280;42803;55.762;38.084;2023-04-02T12:05:18;99125.44;;;11.56;81.18
53011;BME280;42803;55.762;38.084;2023-04-02T12:08:03;99130.75;;;11.44;81.55
53011;BME280;42803;55.762;38.084;2023-04-02T12:10:52;99131.09;;;11.23;81.62
53011;BME280;42803;55.762;38.084;2023-04-02T12:13:50;99130.38;;;11.13;83.49
53011;BME280;42803;55.762;38.084;2023-04-02T12:16:20;99133.81;;;11.25;81.94
53011;BME280;42803;55.762;38.084;2023-04-02T12:18:56;99136.50;;;11.13;83.04
53011;BME280;42803;55.762;38.084;2023-04-02T12:21:28;99139.38;;;11.05;82.98
53011;BME280;42803;55.762;38.084;2023-04-02T12:23:58;99138.06;;;11.36;83.02
53011;BME280;42803;55.762;38.084;2023-04-02T12:26:32;99126.41;;;11.44;81.60
53011;BME280;42803;55.762;38.084;2023-04-02T12:29:15;99143.44;;;11.13;82.74
53011;BME280;42803;55.762;38.084;2023-04-02T12:31:45;99142.09;;;11.06;82.90
53011;BME280;42803;55.762;38.084;2023-04-02T12:34:17;99151.31;;;11.01;83.76
53011;BME280;42803;55.762;38.084;2023-04-02T12:37:14;99145.81;;;11.10;83.68
53011;BME280;42803;55.762;38.084;2023-04-02T12:39:55;99149.97;;;10.94;84.04
53011;BME280;42803;55.762;38.084;2023-04-02T12:42:26;99145.75;;;10.71;85.03
53011;BME280;42803;55.762;38.084;2023-04-02T12:44:59;99144.72;;;10.44;86.59
53011;BME280;42803;55.762;38.084;2023-04-02T12:47:30;99152.75;;;10.47;87.84
53011;BME280;42803;55.762;38.084;2023-04-02T12:50:00;99150.47;;;10.52;87.35
53011;BME280;42803;55.762;38.084;2023-04-02T12:52:33;99148.47;;;10.36;87.73
53011;BME280;42803;55.762;38.084;2023-04-02T12:55:04;99145.97;;;10.49;88.87
53011;BME280;42803;55.762;38.084;2023-04-02T12:57:38;99142.03;;;10.68;87.82
53011;BME280;42803;55.762;38.084;2023-04-02T13:00:32;99140.66;;;10.73;86.48
53011;BME280;42803;55.762;38.084;2023-04-02T13:03:16;99148.13;;;10.80;86.40
53011;BME280;42803;55.762;38.084;2023-04-02T13:05:50;99136.81;;;10.68;86.13
53011;BME280;42803;55.762;38.084;2023-04-02T13:08:25;99143.50;;;10.76;86.38
53011;BME280;42803;55.762;38.084;2023-04-02T13:10:56;99137.16;;;10.97;86.10
53011;BME280;42803;55.762;38.084;2023-04-02T13:13:29;99139.09;;;11.13;85.00
53011;BME280;42803;55.762;38.084;2023-04-02T13:16:20;99136.03;;;11.32;83.88
53011;BME280;42803;55.762;38.084;2023-04-02T13:19:09;99129.28;;;11.61;82.95
53011;BME280;42803;55.762;38.084;2023-04-02T13:21:46;99126.28;;;11.68;81.65
53011;BME280;42803;55.762;38.084;2023-04-02T13:24:18;99131.06;;;11.62;81.38
53011;BME280;42803;55.762;38.084;2023-04-02T13:26:48;99133.09;;;11.53;80.96
53011;BME280;42803;55.762;38.084;2023-04-02T13:29:23;99133.34;;;11.44;81.25
53011;BME280;42803;55.762;38.084;2023-04-02T13:31:54;99139.69;;;11.34;81.50
53011;BME280;42803;55.762;38.084;2023-04-02T13:34:25;99131.78;;;11.59;80.81
53011;BME280;42803;55.762;38.084;2023-04-02T13:36:55;99133.91;;;11.78;79.27
53011;BME280;42803;55.762;38.084;2023-04-02T13:39:26;99133.59;;;11.60;78.97
53011;BME280;42803;55.762;38.084;2023-04-02T13:41:58;99141.47;;;11.35;79.24
53011;BME280;42803;55.762;38.084;2023-04-02T13:44:32;99138.50;;;11.56;79.11
53011;BME280;42803;55.762;38.084;2023-04-02T13:47:03;99144.97;;;11.61;78.87
53011;BME280;42803;55.762;38.084;2023-04-02T13:49:33;99141.72;;;11.52;78.27